sensor_id;sensor_type;location;lat;lon;timestamp;P1;durP1;ratioP1;P2;durP2;ratioP2
48751;SDS011;34544;48.836;9.174;2024-02-15T00:01:00;1.23;;;1.10;;
48751;SDS011;34544;48.836;9.174;2024-02-15T00:03:29;2.08;;;1.52;;
48751;SDS011;34544;48.836;9.174;2024-02-15T00:05:56;6.20;;;1.50;;
48751;SDS011;34544;48.836;9.174;2024-02-15T00:08:23;3.30;;;1.13;;
48751;SDS011;34544;48.836;9.174;2024-02-15T00:10:51;2.83;;;1.20;;
48751;SDS011;34544;48.836;9.174;2024-02-15T00:13:18;6.70;;;2.00;;
48751;SDS011;34544;48.836;9.174;2024-02-15T00:15:45;3.65;;;1.38;;
48751;SDS011;34544;48.836;9.174;2024-02-15T00:18:13;2.45;;;1.27;;
48751;SDS011;34544;48.836;9.174;2024-02-15T00:20:39;4.03;;;1.35;;
48751;SDS011;34544;48.836;9.174;2024-02-15T00:23:04;1.58;;;1.05;;
48751;SDS011;34544;48.836;9.174;2024-02-15T00:25:31;2.72;;;1.50;;
48751;SDS011;34544;48.836;9.174;2024-02-15T00:27:58;3.30;;;1.75;;
48751;SDS011;34544;48.836;9.174;2024-02-15T00:30:27;2.53;;;1.42;;
48751;SDS011;34544;48.836;9.174;2024-02-15T00:32:53;2.42;;;1.52;;
48751;SDS011;34544;48.836;9.174;2024-02-15T00:35:19;3.55;;;1.60;;
48751;SDS011;34544;48.836;9.174;2024-02-15T00:37:45;1.65;;;1.00;;
48751;SDS011;34544;48.836;9.174;2024-02-15T00:40:11;2.78;;;1.55;;
48751;SDS011;34544;48.836;9.174;2024-02-15T00:42:37;3.47;;;1.23;;
48751;SDS011;34544;48.836;9.174;2024-02-15T00:45:03;2.28;;;1.00;;
48751;SDS011;34544;48.836;9.174;2024-02-15T00:47:30;2.30;;;1.27;;
48751;SDS011;34544;48.836;9.174;2024-02-15T00:49:56;2.63;;;1.35;;
48751;SDS011;34544;48.836;9.174;2024-02-15T00:52:21;4.00;;;1.60;;
48751;SDS011;34544;48.836;9.174;2024-02-15T00:54:47;3.65;;;1.20;;
48751;SDS011;34544;48.836;9.174;2024-02-15T00:57:13;3.55;;;1.65;;
48751;SDS011;34544;48.836;9.174;2024-02-15T00:59:39;4.05;;;1.60;;
48751;SDS011;34544;48.836;9.174;2024-02-15T01:02:05;4.88;;;1.83;;
48751;SDS011;34544;48.836;9.174;2024-02-15T01:04:30;2.35;;;1.52;;
48751;SDS011;34544;48.836;9.174;2024-02-15T01:06:56;1.95;;;1.20;;
48751;SDS011;34544;48.836;9.174;2024-02-15T01:09:22;2.65;;;1.23;;
48751;SDS011;34544;48.836;9.174;2024-02-15T01:11:48;2.00;;;1.20;;
48751;SDS011;34544;48.836;9.174;2024-02-15T01:14:14;3.08;;;1.23;;
48751;SDS011;34544;48.836;9.174;2024-02-15T01:16:40;6.35;;;1.17;;
48751;SDS011;34544;48.836;9.174;2024-02-15T01:19:06;2.72;;;1.40;;
48751;SDS011;34544;48.836;9.174;2024-02-15T01:21:32;6.22;;;1.13;;
48751;SDS011;34544;48.836;9.174;2024-02-15T01:23:58;6.55;;;1.33;;
48751;SDS011;34544;48.836;9.174;2024-02-15T01:26:25;3.17;;;0.80;;
48751;SDS011;34544;48.836;9.174;2024-02-15T01:28:52;6.07;;;0.98;;
48751;SDS011;34544;48.836;9.174;2024-02-15T01:31:17;3.67;;;1.05;;
48751;SDS011;34544;48.836;9.174;2024-02-15T01:33:43;4.63;;;1.67;;
48751;SDS011;34544;48.836;9.174;2024-02-15T01:36:17;2.10;;;1.10;;
48751;SDS011;34544;48.836;9.174;2024-02-15T01:41:09;2.15;;;0.98;;
48751;SDS011;34544;48.836;9.174;2024-02-15T01:43:35;4.28;;;1.33;;
48751;SDS011;34544;48.836;9.174;2024-02-15T01:46:02;4.82;;;1.75;;
48751;SDS011;34544;48.836;9.174;2024-02-15T01:48:40;2.03;;;0.90;;
48751;SDS011;34544;48.836;9.174;2024-02-15T01:51:10;2.15;;;0.98;;
48751;SDS011;34544;48.836;9.174;2024-02-15T01:53:38;4.43;;;1.13;;
48751;SDS011;34544;48.836;9.174;2024-02-15T01:56:05;2.55;;;1.40;;
48751;SDS011;34544;48.836;9.174;2024-02-15T01:58:32;3.85;;;1.90;;
48751;SDS011;34544;48.836;9.174;2024-02-15T02:00:58;4.13;;;1.52;;
48751;SDS011;34544;48.836;9.174;2024-02-15T02:03:26;4.90;;;1.42;;
48751;SDS011;34544;48.836;9.174;2024-02-15T02:05:52;2.85;;;1.30;;
48751;SDS011;34544;48.836;9.174;2024-02-15T02:08:18;4.50;;;1.10;;
48751;SDS011;34544;48.836;9.174;2024-02-15T02:10:44;3.67;;;1.05;;
48751;SDS011;34544;48.836;9.174;2024-02-15T02:13:11;2.88;;;0.93;;
48751;SDS011;34544;48.836;9.174;2024-02-15T02:15:36;2.40;;;1.27;;
48751;SDS011;34544;48.836;9.174;2024-02-15T02:18:02;3.63;;;0.93;;
48751;SDS011;34544;48.836;9.174;2024-02-15T02:20:31;3.90;;;1.60;;
48751;SDS011;34544;48.836;9.174;2024-02-15T02:23:20;2.72;;;1.33;;
48751;SDS011;34544;48.836;9.174;2024-02-15T02:25:48;6.97;;;1.50;;
48751;SDS011;34544;48.836;9.174;2024-02-15T02:28:14;4.05;;;1.45;;
48751;SDS011;34544;48.836;9.174;2024-02-15T02:30:41;6.38;;;1.42;;
48751;SDS011;34544;48.836;9.174;2024-02-15T02:33:11;2.20;;;1.08;;
48751;SDS011;34544;48.836;9.174;2024-02-15T02:35:44;2.83;;;1.33;;
48751;SDS011;34544;48.836;9.174;2024-02-15T02:38:10;8.90;;;1.13;;
48751;SDS011;34544;48.836;9.174;2024-02-15T02:40:37;3.17;;;1.23;;
48751;SDS011;34544;48.836;9.174;2024-02-15T02:43:03;1.13;;;0.90;;
48751;SDS011;34544;48.836;9.174;2024-02-15T02:45:29;2.60;;;1.20;;
48751;SDS011;34544;48.836;9.174;2024-02-15T02:47:55;3.55;;;1.20;;
48751;SDS011;34544;48.836;9.174;2024-02-15T02:50:21;3.92;;;1.02;;
48751;SDS011;34544;48.836;9.174;2024-02-15T02:52:50;3.35;;;1.48;;
48751;SDS011;34544;48.836;9.174;2024-02-15T02:55:16;1.88;;;1.35;;
48751;SDS011;34544;48.836;9.174;2024-02-15T02:57:42;4.45;;;1.45;;
48751;SDS011;34544;48.836;9.174;2024-02-15T03:00:09;3.45;;;1.58;;
48751;SDS011;34544;48.836;9.174;2024-02-15T03:02:45;2.25;;;0.93;;
48751;SDS011;34544;48.836;9.174;2024-02-15T03:05:11;5.63;;;1.48;;
48751;SDS011;34544;48.836;9.174;2024-02-15T03:07:37;4.05;;;1.70;;
48751;SDS011;34544;48.836;9.174;2024-02-15T03:10:08;1.90;;;1.10;;
48751;SDS011;34544;48.836;9.174;2024-02-15T03:12:35;4.32;;;1.20;;
48751;SDS011;34544;48.836;9.174;2024-02-15T03:15:04;4.30;;;1.38;;
48751;SDS011;34544;48.836;9.174;2024-02-15T03:17:37;4.40;;;1.08;;
48751;SDS011;34544;48.836;9.174;2024-02-15T03:20:07;5.45;;;1.23;;
48751;SDS011;34544;48.836;9.174;2024-02-15T03:22:37;3.65;;;1.33;;
48751;SDS011;34544;48.836;9.174;2024-02-15T03:25:04;7.20;;;1.75;;
48751;SDS011;34544;48.836;9.174;2024-02-15T03:27:33;3.10;;;1.00;;
48751;SDS011;34544;48.836;9.174;2024-02-15T03:30:00;4.07;;;1.30;;
48751;SDS011;34544;48.836;9.174;2024-02-15T03:32:26;5.82;;;2.22;;
48751;SDS011;34544;48.836;9.174;2024-02-15T03:34:52;5.47;;;1.45;;
48751;SDS011;34544;48.836;9.174;2024-02-15T03:37:19;5.10;;;1.60;;
48751;SDS011;34544;48.836;9.174;2024-02-15T03:39:45;8.35;;;1.65;;
48751;SDS011;34544;48.836;9.174;2024-02-15T03:42:12;2.08;;;1.10;;
48751;SDS011;34544;48.836;9.174;2024-02-15T03:44:38;2.40;;;1.52;;
48751;SDS011;34544;48.836;9.174;2024-02-15T03:47:04;1.75;;;1.30;;
48751;SDS011;34544;48.836;9.174;2024-02-15T03:49:30;2.13;;;1.50;;
48751;SDS011;34544;48.836;9.174;2024-02-15T03:51:57;2.15;;;1.02;;
48751;SDS011;34544;48.836;9.174;2024-02-15T03:54:26;3.03;;;1.70;;
48751;SDS011;34544;48.836;9.174;2024-02-15T03:56:52;3.00;;;1.20;;
48751;SDS011;34544;48.836;9.174;2024-02-15T03:59:18;5.07;;;1.65;;
48751;SDS011;34544;48.836;9.174;2024-02-15T04:01:50;4.20;;;1.90;;
48751;SDS011;34544;48.836;9.174;2024-02-15T04:04:16;4.10;;;1.40;;
48751;SDS011;34544;48.836;9.174;2024-02-15T04:06:42;4.50;;;1.50;;
48751;SDS011;34544;48.836;9.174;2024-02-15T04:09:08;2.60;;;1.33;;
48751;SDS011;34544;48.836;9.174;2024-02-15T04:11:36;4.20;;;1.65;;
48751;SDS011;34544;48.836;9.174;2024-02-15T04:14:03;2.50;;;1.70;;
48751;SDS011;34544;48.836;9.174;2024-02-15T04:16:29;2.17;;;1.30;;
48751;SDS011;34544;48.836;9.174;2024-02-15T04:18:56;3.00;;;1.30;;
48751;SDS011;34544;48.836;9.174;2024-02-15T04:21:25;5.22;;;1.40;;
48751;SDS011;34544;48.836;9.174;2024-02-15T04:23:52;5.70;;;1.60;;
48751;SDS011;34544;48.836;9.174;2024-02-15T04:26:19;5.28;;;1.52;;
48751;SDS011;34544;48.836;9.174;2024-02-15T04:28:45;4.93;;;1.40;;
48751;SDS011;34544;48.836;9.174;2024-02-15T04:31:13;3.78;;;1.50;;
48751;SDS011;34544;48.836;9.174;2024-02-15T04:33:40;4.03;;;1.50;;
48751;SDS011;34544;48.836;9.174;2024-02-15T04:36:06;6.00;;;1.50;;
48751;SDS011;34544;48.836;9.174;2024-02-15T04:38:32;3.88;;;1.33;;
48751;SDS011;34544;48.836;9.174;2024-02-15T04:41:00;2.70;;;1.38;;
48751;SDS011;34544;48.836;9.174;2024-02-15T04:43:27;3.03;;;1.83;;
48751;SDS011;34544;48.836;9.174;2024-02-15T04:45:54;2.40;;;1.52;;
48751;SDS011;34544;48.836;9.174;2024-02-15T04:48:20;4.15;;;1.65;;
48751;SDS011;34544;48.836;9.174;2024-02-15T04:50:46;6.07;;;1.60;;
48751;SDS011;34544;48.836;9.174;2024-02-15T04:53:12;3.92;;;1.63;;
48751;SDS011;34544;48.836;9.174;2024-02-15T04:55:37;6.07;;;2.20;;
48751;SDS011;34544;48.836;9.174;2024-02-15T04:58:03;5.43;;;1.63;;
48751;SDS011;34544;48.836;9.174;2024-02-15T05:00:29;5.53;;;1.70;;
48751;SDS011;34544;48.836;9.174;2024-02-15T05:02:55;6.85;;;1.73;;
48751;SDS011;34544;48.836;9.174;2024-02-15T05:05:21;3.72;;;1.80;;
48751;SDS011;34544;48.836;9.174;2024-02-15T05:07:48;4.00;;;2.10;;
48751;SDS011;34544;48.836;9.174;2024-02-15T05:10:14;4.20;;;1.80;;
48751;SDS011;34544;48.836;9.174;2024-02-15T05:12:41;4.38;;;2.63;;
48751;SDS011;34544;48.836;9.174;2024-02-15T05:15:08;3.35;;;1.55;;
48751;SDS011;34544;48.836;9.174;2024-02-15T05:17:37;5.90;;;1.92;;
48751;SDS011;34544;48.836;9.174;2024-02-15T05:20:06;4.55;;;1.80;;
48751;SDS011;34544;48.836;9.174;2024-02-15T05:22:39;5.57;;;1.92;;
48751;SDS011;34544;48.836;9.174;2024-02-15T05:25:09;5.85;;;1.95;;
48751;SDS011;34544;48.836;9.174;2024-02-15T05:27:35;5.65;;;2.40;;
48751;SDS011;34544;48.836;9.174;2024-02-15T05:30:02;4.10;;;1.95;;
48751;SDS011;34544;48.836;9.174;2024-02-15T05:32:35;3.78;;;1.88;;
48751;SDS011;34544;48.836;9.174;2024-02-15T05:35:09;11.27;;;2.00;;
48751;SDS011;34544;48.836;9.174;2024-02-15T05:37:36;4.68;;;1.80;;
48751;SDS011;34544;48.836;9.174;2024-02-15T05:40:03;3.45;;;1.58;;
48751;SDS011;34544;48.836;9.174;2024-02-15T05:42:30;6.13;;;2.15;;
48751;SDS011;34544;48.836;9.174;2024-02-15T05:44:58;3.35;;;1.30;;
48751;SDS011;34544;48.836;9.174;2024-02-15T05:47:52;2.70;;;1.75;;
48751;SDS011;34544;48.836;9.174;2024-02-15T05:50:18;6.43;;;3.05;;
48751;SDS011;34544;48.836;9.174;2024-02-15T05:52:50;2.40;;;1.50;;
48751;SDS011;34544;48.836;9.174;2024-02-15T05:55:19;4.30;;;1.80;;
48751;SDS011;34544;48.836;9.174;2024-02-15T05:57:45;4.93;;;1.80;;
48751;SDS011;34544;48.836;9.174;2024-02-15T06:00:12;4.57;;;1.65;;
48751;SDS011;34544;48.836;9.174;2024-02-15T06:02:40;5.45;;;2.10;;
48751;SDS011;34544;48.836;9.174;2024-02-15T06:05:06;3.22;;;1.83;;
48751;SDS011;34544;48.836;9.174;2024-02-15T06:07:32;2.20;;;1.35;;
48751;SDS011;34544;48.836;9.174;2024-02-15T06:09:57;5.15;;;1.65;;
48751;SDS011;34544;48.836;9.174;2024-02-15T06:12:28;6.07;;;1.80;;
48751;SDS011;34544;48.836;9.174;2024-02-15T06:14:55;2.72;;;1.50;;
48751;SDS011;34544;48.836;9.174;2024-02-15T06:17:21;4.18;;;1.67;;
48751;SDS011;34544;48.836;9.174;2024-02-15T06:19:46;3.10;;;1.55;;
48751;SDS011;34544;48.836;9.174;2024-02-15T06:22:12;3.78;;;1.90;;
48751;SDS011;34544;48.836;9.174;2024-02-15T06:24:38;2.53;;;1.55;;
48751;SDS011;34544;48.836;9.174;2024-02-15T06:27:04;7.65;;;2.30;;
48751;SDS011;34544;48.836;9.174;2024-02-15T06:29:31;2.75;;;1.55;;
48751;SDS011;34544;48.836;9.174;2024-02-15T06:32:15;4.03;;;1.67;;
48751;SDS011;34544;48.836;9.174;2024-02-15T06:34:59;7.75;;;1.85;;
48751;SDS011;34544;48.836;9.174;2024-02-15T06:37:43;4.97;;;2.08;;
48751;SDS011;34544;48.836;9.174;2024-02-15T06:40:28;3.40;;;1.20;;
48751;SDS011;34544;48.836;9.174;2024-02-15T06:42:53;3.35;;;1.67;;
48751;SDS011;34544;48.836;9.174;2024-02-15T06:45:19;4.63;;;1.88;;
48751;SDS011;34544;48.836;9.174;2024-02-15T06:47:45;2.78;;;1.20;;
48751;SDS011;34544;48.836;9.174;2024-02-15T06:50:11;3.72;;;1.45;;
48751;SDS011;34544;48.836;9.174;2024-02-15T06:52:38;2.97;;;1.98;;
48751;SDS011;34544;48.836;9.174;2024-02-15T06:55:06;2.67;;;1.60;;
48751;SDS011;34544;48.836;9.174;2024-02-15T06:57:33;8.63;;;2.53;;
48751;SDS011;34544;48.836;9.174;2024-02-15T07:00:03;3.03;;;1.77;;
48751;SDS011;34544;48.836;9.174;2024-02-15T07:02:35;3.17;;;1.80;;
48751;SDS011;34544;48.836;9.174;2024-02-15T07:05:01;2.92;;;1.33;;
48751;SDS011;34544;48.836;9.174;2024-02-15T07:07:30;4.07;;;1.60;;
48751;SDS011;34544;48.836;9.174;2024-02-15T07:09:56;1.75;;;1.33;;
48751;SDS011;34544;48.836;9.174;2024-02-15T07:12:23;1.98;;;1.75;;
48751;SDS011;34544;48.836;9.174;2024-02-15T07:14:48;4.80;;;1.58;;
48751;SDS011;34544;48.836;9.174;2024-02-15T07:17:14;12.48;;;2.72;;
48751;SDS011;34544;48.836;9.174;2024-02-15T07:19:43;9.23;;;1.90;;
48751;SDS011;34544;48.836;9.174;2024-02-15T07:22:09;3.83;;;1.67;;
48751;SDS011;34544;48.836;9.174;2024-02-15T07:24:35;3.25;;;1.60;;
48751;SDS011;34544;48.836;9.174;2024-02-15T07:27:06;2.25;;;1.58;;
48751;SDS011;34544;48.836;9.174;2024-02-15T07:29:32;2.92;;;1.45;;
48751;SDS011;34544;48.836;9.174;2024-02-15T07:32:01;5.80;;;1.73;;
48751;SDS011;34544;48.836;9.174;2024-02-15T07:34:30;3.08;;;1.55;;
48751;SDS011;34544;48.836;9.174;2024-02-15T07:36:56;5.68;;;2.20;;
48751;SDS011;34544;48.836;9.174;2024-02-15T07:39:25;2.78;;;1.70;;
48751;SDS011;34544;48.836;9.174;2024-02-15T07:41:53;2.28;;;1.50;;
48751;SDS011;34544;48.836;9.174;2024-02-15T07:44:19;3.97;;;1.70;;
48751;SDS011;34544;48.836;9.174;2024-02-15T07:46:47;9.18;;;1.75;;
48751;SDS011;34544;48.836;9.174;2024-02-15T07:49:13;2.55;;;1.33;;
48751;SDS011;34544;48.836;9.174;2024-02-15T07:51:39;3.25;;;1.35;;
48751;SDS011;34544;48.836;9.174;2024-02-15T07:54:05;2.95;;;1.73;;
48751;SDS011;34544;48.836;9.174;2024-02-15T07:56:31;8.13;;;1.92;;
48751;SDS011;34544;48.836;9.174;2024-02-15T07:58:57;4.13;;;2.30;;
48751;SDS011;34544;48.836;9.174;2024-02-15T08:01:22;6.65;;;3.13;;
48751;SDS011;34544;48.836;9.174;2024-02-15T08:03:48;4.53;;;2.53;;
48751;SDS011;34544;48.836;9.174;2024-02-15T08:06:15;12.75;;;3.22;;
48751;SDS011;34544;48.836;9.174;2024-02-15T08:08:45;10.15;;;2.67;;
48751;SDS011;34544;48.836;9.174;2024-02-15T08:11:12;4.70;;;2.13;;
48751;SDS011;34544;48.836;9.174;2024-02-15T08:16:21;5.47;;;1.92;;
48751;SDS011;34544;48.836;9.174;2024-02-15T08:18:48;5.47;;;2.10;;
48751;SDS011;34544;48.836;9.174;2024-02-15T08:21:17;5.10;;;2.50;;
48751;SDS011;34544;48.836;9.174;2024-02-15T08:23:43;7.85;;;2.85;;
48751;SDS011;34544;48.836;9.174;2024-02-15T08:26:09;7.20;;;2.03;;
48751;SDS011;34544;48.836;9.174;2024-02-15T08:28:38;7.53;;;2.35;;
48751;SDS011;34544;48.836;9.174;2024-02-15T08:31:04;4.43;;;2.97;;
48751;SDS011;34544;48.836;9.174;2024-02-15T08:33:30;5.45;;;2.38;;
48751;SDS011;34544;48.836;9.174;2024-02-15T08:35:56;3.28;;;2.35;;
48751;SDS011;34544;48.836;9.174;2024-02-15T08:38:22;5.15;;;2.65;;
48751;SDS011;34544;48.836;9.174;2024-02-15T08:40:48;2.45;;;2.22;;
48751;SDS011;34544;48.836;9.174;2024-02-15T08:43:14;3.58;;;1.88;;
48751;SDS011;34544;48.836;9.174;2024-02-15T08:45:43;5.85;;;2.40;;
48751;SDS011;34544;48.836;9.174;2024-02-15T08:48:09;3.80;;;1.95;;
48751;SDS011;34544;48.836;9.174;2024-02-15T08:50:35;6.25;;;2.20;;
48751;SDS011;34544;48.836;9.174;2024-02-15T08:53:01;7.57;;;3.40;;
48751;SDS011;34544;48.836;9.174;2024-02-15T08:55:31;5.80;;;2.30;;
48751;SDS011;34544;48.836;9.174;2024-02-15T08:57:57;6.93;;;3.10;;
48751;SDS011;34544;48.836;9.174;2024-02-15T09:00:25;3.25;;;2.38;;
48751;SDS011;34544;48.836;9.174;2024-02-15T09:02:52;9.10;;;2.38;;
48751;SDS011;34544;48.836;9.174;2024-02-15T09:05:18;5.85;;;2.30;;
48751;SDS011;34544;48.836;9.174;2024-02-15T09:07:44;9.68;;;3.30;;
48751;SDS011;34544;48.836;9.174;2024-02-15T09:10:15;7.68;;;2.92;;
48751;SDS011;34544;48.836;9.174;2024-02-15T09:12:42;4.68;;;2.95;;
48751;SDS011;34544;48.836;9.174;2024-02-15T09:15:10;6.05;;;2.60;;
48751;SDS011;34544;48.836;9.174;2024-02-15T09:17:36;3.45;;;2.28;;
48751;SDS011;34544;48.836;9.174;2024-02-15T09:20:08;6.18;;;2.90;;
48751;SDS011;34544;48.836;9.174;2024-02-15T09:22:49;3.53;;;1.95;;
48751;SDS011;34544;48.836;9.174;2024-02-15T09:25:16;7.32;;;2.13;;
48751;SDS011;34544;48.836;9.174;2024-02-15T09:27:42;4.32;;;2.10;;
48751;SDS011;34544;48.836;9.174;2024-02-15T09:30:09;4.32;;;2.47;;
48751;SDS011;34544;48.836;9.174;2024-02-15T09:32:35;6.80;;;2.42;;
48751;SDS011;34544;48.836;9.174;2024-02-15T09:35:01;6.18;;;3.03;;
48751;SDS011;34544;48.836;9.174;2024-02-15T09:37:27;9.15;;;2.70;;
48751;SDS011;34544;48.836;9.174;2024-02-15T09:39:56;3.85;;;1.95;;
48751;SDS011;34544;48.836;9.174;2024-02-15T09:42:24;8.85;;;2.00;;
48751;SDS011;34544;48.836;9.174;2024-02-15T09:44:50;7.45;;;2.10;;
48751;SDS011;34544;48.836;9.174;2024-02-15T09:47:16;3.92;;;1.70;;
48751;SDS011;34544;48.836;9.174;2024-02-15T09:49:44;4.85;;;1.80;;
48751;SDS011;34544;48.836;9.174;2024-02-15T09:52:09;4.72;;;1.58;;
48751;SDS011;34544;48.836;9.174;2024-02-15T09:54:39;4.65;;;1.80;;
48751;SDS011;34544;48.836;9.174;2024-02-15T09:57:06;3.05;;;1.67;;
48751;SDS011;34544;48.836;9.174;2024-02-15T09:59:33;2.22;;;1.30;;
48751;SDS011;34544;48.836;9.174;2024-02-15T10:02:01;4.13;;;1.67;;
48751;SDS011;34544;48.836;9.174;2024-02-15T10:04:27;4.00;;;1.92;;
48751;SDS011;34544;48.836;9.174;2024-02-15T10:06:53;9.75;;;2.35;;
48751;SDS011;34544;48.836;9.174;2024-02-15T10:09:26;6.20;;;1.60;;
48751;SDS011;34544;48.836;9.174;2024-02-15T10:11:57;4.32;;;1.27;;
48751;SDS011;34544;48.836;9.174;2024-02-15T10:14:24;3.20;;;1.50;;
48751;SDS011;34544;48.836;9.174;2024-02-15T10:16:51;6.03;;;1.90;;
48751;SDS011;34544;48.836;9.174;2024-02-15T10:19:18;3.45;;;1.92;;
48751;SDS011;34544;48.836;9.174;2024-02-15T10:21:50;3.50;;;1.65;;
48751;SDS011;34544;48.836;9.174;2024-02-15T10:24:20;8.15;;;1.88;;
48751;SDS011;34544;48.836;9.174;2024-02-15T10:26:48;4.82;;;1.38;;
48751;SDS011;34544;48.836;9.174;2024-02-15T10:29:14;5.68;;;1.90;;
48751;SDS011;34544;48.836;9.174;2024-02-15T10:31:55;4.18;;;1.90;;
48751;SDS011;34544;48.836;9.174;2024-02-15T10:34:22;4.53;;;1.70;;
48751;SDS011;34544;48.836;9.174;2024-02-15T10:36:48;3.58;;;2.00;;
48751;SDS011;34544;48.836;9.174;2024-02-15T10:39:18;4.95;;;1.92;;
48751;SDS011;34544;48.836;9.174;2024-02-15T10:41:51;5.53;;;1.60;;
48751;SDS011;34544;48.836;9.174;2024-02-15T10:44:19;4.18;;;1.48;;
48751;SDS011;34544;48.836;9.174;2024-02-15T10:46:47;3.28;;;1.33;;
48751;SDS011;34544;48.836;9.174;2024-02-15T10:49:16;2.40;;;1.50;;
48751;SDS011;34544;48.836;9.174;2024-02-15T10:51:48;4.45;;;1.17;;
48751;SDS011;34544;48.836;9.174;2024-02-15T10:54:19;2.88;;;1.05;;
48751;SDS011;34544;48.836;9.174;2024-02-15T10:57:01;1.98;;;1.08;;
48751;SDS011;34544;48.836;9.174;2024-02-15T10:59:31;3.58;;;2.05;;
48751;SDS011;34544;48.836;9.174;2024-02-15T11:02:10;2.67;;;1.10;;
48751;SDS011;34544;48.836;9.174;2024-02-15T11:04:55;13.00;;;1.40;;
48751;SDS011;34544;48.836;9.174;2024-02-15T11:07:40;1.92;;;0.88;;
48751;SDS011;34544;48.836;9.174;2024-02-15T11:10:08;2.70;;;0.88;;
48751;SDS011;34544;48.836;9.174;2024-02-15T11:12:36;4.93;;;0.80;;
48751;SDS011;34544;48.836;9.174;2024-02-15T11:15:02;3.42;;;0.93;;
48751;SDS011;34544;48.836;9.174;2024-02-15T11:22:58;2.35;;;0.70;;
48751;SDS011;34544;48.836;9.174;2024-02-15T11:25:32;2.17;;;0.90;;
48751;SDS011;34544;48.836;9.174;2024-02-15T11:30:46;5.13;;;0.98;;
48751;SDS011;34544;48.836;9.174;2024-02-15T11:33:25;1.77;;;0.70;;
48751;SDS011;34544;48.836;9.174;2024-02-15T11:36:13;3.63;;;0.85;;
48751;SDS011;34544;48.836;9.174;2024-02-15T11:38:39;4.65;;;1.73;;
48751;SDS011;34544;48.836;9.174;2024-02-15T11:41:09;3.45;;;1.23;;
48751;SDS011;34544;48.836;9.174;2024-02-15T11:46:13;5.63;;;1.45;;
48751;SDS011;34544;48.836;9.174;2024-02-15T11:48:40;3.97;;;1.40;;
48751;SDS011;34544;48.836;9.174;2024-02-15T11:51:08;3.60;;;1.10;;
48751;SDS011;34544;48.836;9.174;2024-02-15T11:53:36;5.00;;;0.90;;
48751;SDS011;34544;48.836;9.174;2024-02-15T11:56:02;3.63;;;1.08;;
48751;SDS011;34544;48.836;9.174;2024-02-15T11:58:34;0.90;;;0.80;;
48751;SDS011;34544;48.836;9.174;2024-02-15T12:01:17;4.82;;;0.93;;
48751;SDS011;34544;48.836;9.174;2024-02-15T12:04:02;7.05;;;1.70;;
48751;SDS011;34544;48.836;9.174;2024-02-15T12:06:47;1.38;;;0.80;;
48751;SDS011;34544;48.836;9.174;2024-02-15T12:09:31;3.63;;;0.80;;
48751;SDS011;34544;48.836;9.174;2024-02-15T12:12:16;2.10;;;0.95;;
48751;SDS011;34544;48.836;9.174;2024-02-15T12:15:01;3.13;;;1.30;;
48751;SDS011;34544;48.836;9.174;2024-02-15T12:17:46;2.40;;;1.40;;
48751;SDS011;34544;48.836;9.174;2024-02-15T12:20:30;2.88;;;1.05;;
48751;SDS011;34544;48.836;9.174;2024-02-15T12:22:57;1.80;;;1.10;;
48751;SDS011;34544;48.836;9.174;2024-02-15T12:25:26;1.27;;;0.82;;
48751;SDS011;34544;48.836;9.174;2024-02-15T12:27:52;1.42;;;0.70;;
48751;SDS011;34544;48.836;9.174;2024-02-15T12:30:19;0.80;;;0.70;;
48751;SDS011;34544;48.836;9.174;2024-02-15T12:32:50;2.10;;;0.80;;
48751;SDS011;34544;48.836;9.174;2024-02-15T12:35:17;2.05;;;0.60;;
48751;SDS011;34544;48.836;9.174;2024-02-15T12:37:47;2.95;;;1.02;;
48751;SDS011;34544;48.836;9.174;2024-02-15T12:40:36;3.45;;;1.10;;
48751;SDS011;34544;48.836;9.174;2024-02-15T12:43:09;2.05;;;1.10;;
48751;SDS011;34544;48.836;9.174;2024-02-15T12:45:36;1.88;;;0.60;;
48751;SDS011;34544;48.836;9.174;2024-02-15T12:48:03;4.22;;;0.80;;
48751;SDS011;34544;48.836;9.174;2024-02-15T12:50:31;3.78;;;1.20;;
48751;SDS011;34544;48.836;9.174;2024-02-15T12:52:57;3.65;;;1.63;;
48751;SDS011;34544;48.836;9.174;2024-02-15T12:55:29;6.03;;;1.40;;
48751;SDS011;34544;48.836;9.174;2024-02-15T12:58:00;2.88;;;1.17;;
48751;SDS011;34544;48.836;9.174;2024-02-15T13:00:29;2.65;;;1.30;;
48751;SDS011;34544;48.836;9.174;2024-02-15T13:03:01;2.40;;;1.17;;
48751;SDS011;34544;48.836;9.174;2024-02-15T13:05:28;3.70;;;1.08;;
48751;SDS011;34544;48.836;9.174;2024-02-15T13:07:56;2.40;;;0.80;;
48751;SDS011;34544;48.836;9.174;2024-02-15T13:10:28;2.63;;;1.23;;
48751;SDS011;34544;48.836;9.174;2024-02-15T13:12:54;6.15;;;1.45;;
48751;SDS011;34544;48.836;9.174;2024-02-15T13:15:21;2.95;;;0.98;;
48751;SDS011;34544;48.836;9.174;2024-02-15T13:17:52;6.22;;;1.75;;
48751;SDS011;34544;48.836;9.174;2024-02-15T13:20:25;2.92;;;1.10;;
48751;SDS011;34544;48.836;9.174;2024-02-15T13:22:58;5.25;;;1.30;;
48751;SDS011;34544;48.836;9.174;2024-02-15T13:25:33;2.10;;;1.00;;
48751;SDS011;34544;48.836;9.174;2024-02-15T13:28:01;6.32;;;1.30;;
48751;SDS011;34544;48.836;9.174;2024-02-15T13:30:29;5.97;;;1.58;;
48751;SDS011;34544;48.836;9.174;2024-02-15T13:32:55;2.65;;;0.90;;
48751;SDS011;34544;48.836;9.174;2024-02-15T13:35:21;2.75;;;0.90;;
48751;SDS011;34544;48.836;9.174;2024-02-15T13:40:17;2.00;;;1.17;;
48751;SDS011;34544;48.836;9.174;2024-02-15T13:42:45;3.78;;;1.35;;
48751;SDS011;34544;48.836;9.174;2024-02-15T13:45:15;1.98;;;0.95;;
48751;SDS011;34544;48.836;9.174;2024-02-15T13:47:45;1.63;;;1.00;;
48751;SDS011;34544;48.836;9.174;2024-02-15T13:50:15;7.43;;;1.45;;
48751;SDS011;34544;48.836;9.174;2024-02-15T13:52:42;1.80;;;0.90;;
48751;SDS011;34544;48.836;9.174;2024-02-15T13:55:18;1.75;;;0.95;;
48751;SDS011;34544;48.836;9.174;2024-02-15T13:57:47;4.60;;;1.60;;
48751;SDS011;34544;48.836;9.174;2024-02-15T14:00:14;3.80;;;1.13;;
48751;SDS011;34544;48.836;9.174;2024-02-15T14:02:51;12.18;;;1.70;;
48751;SDS011;34544;48.836;9.174;2024-02-15T14:05:22;2.88;;;1.30;;
48751;SDS011;34544;48.836;9.174;2024-02-15T14:07:51;2.88;;;0.60;;
48751;SDS011;34544;48.836;9.174;2024-02-15T14:10:24;4.25;;;0.70;;
48751;SDS011;34544;48.836;9.174;2024-02-15T14:12:52;4.57;;;1.27;;
48751;SDS011;34544;48.836;9.174;2024-02-15T14:15:20;2.28;;;0.90;;
48751;SDS011;34544;48.836;9.174;2024-02-15T14:17:49;2.65;;;1.35;;
48751;SDS011;34544;48.836;9.174;2024-02-15T14:20:15;3.47;;;0.90;;
48751;SDS011;34544;48.836;9.174;2024-02-15T14:22:41;1.65;;;1.13;;
48751;SDS011;34544;48.836;9.174;2024-02-15T14:25:14;1.50;;;0.85;;
48751;SDS011;34544;48.836;9.174;2024-02-15T14:27:40;2.67;;;0.90;;
48751;SDS011;34544;48.836;9.174;2024-02-15T14:30:07;3.35;;;0.85;;
48751;SDS011;34544;48.836;9.174;2024-02-15T14:32:52;2.85;;;1.20;;
48751;SDS011;34544;48.836;9.174;2024-02-15T14:35:33;2.83;;;1.52;;
48751;SDS011;34544;48.836;9.174;2024-02-15T14:38:09;4.00;;;1.30;;
48751;SDS011;34544;48.836;9.174;2024-02-15T14:40:40;4.15;;;1.42;;
48751;SDS011;34544;48.836;9.174;2024-02-15T14:43:11;3.55;;;1.40;;
48751;SDS011;34544;48.836;9.174;2024-02-15T14:45:38;2.72;;;1.25;;
48751;SDS011;34544;48.836;9.174;2024-02-15T14:48:07;11.85;;;1.85;;
48751;SDS011;34544;48.836;9.174;2024-02-15T14:50:38;4.43;;;1.35;;
48751;SDS011;34544;48.836;9.174;2024-02-15T14:53:04;3.33;;;1.70;;
48751;SDS011;34544;48.836;9.174;2024-02-15T14:55:30;5.05;;;1.50;;
48751;SDS011;34544;48.836;9.174;2024-02-15T14:57:56;4.18;;;1.70;;
48751;SDS011;34544;48.836;9.174;2024-02-15T15:00:23;4.95;;;1.27;;
48751;SDS011;34544;48.836;9.174;2024-02-15T15:02:50;2.92;;;1.20;;
48751;SDS011;34544;48.836;9.174;2024-02-15T15:05:16;4.15;;;1.65;;
48751;SDS011;34544;48.836;9.174;2024-02-15T15:08:00;3.58;;;1.55;;
48751;SDS011;34544;48.836;9.174;2024-02-15T15:10:45;3.30;;;2.10;;
48751;SDS011;34544;48.836;9.174;2024-02-15T15:13:30;3.38;;;1.45;;
48751;SDS011;34544;48.836;9.174;2024-02-15T15:15:57;6.22;;;1.50;;